sensor_id;sensor_type;location;lat;lon;timestamp;pressure;altitude;pressure_sealevel;temperature;humidity
49377;BME280;35253;34.688;33.040;2023-11-19T00:00:31;99869.16;;;20.79;100.00
49377;BME280;35253;34.688;33.040;2023-11-19T00:02:56;99870.06;;;21.02;100.00
49377;BME280;35253;34.688;33.040;2023-11-19T00:05:22;99870.53;;;20.75;100.00
49377;BME280;35253;34.688;33.040;2023-11-19T00:07:48;99867.19;;;20.65;100.00
49377;BME280;35253;34.688;33.040;2023-11-19T00:10:14;99864.69;;;20.47;100.00
49377;BME280;35253;34.688;33.040;2023-11-19T00:12:48;99865.47;;;20.64;100.00
49377;BME280;35253;34.688;33.040;2023-11-19T00:15:14;99867.25;;;20.49;100.00
49377;BME280;35253;34.688;33.040;2023-11-19T00:17:41;99864.22;;;20.44;100.00
49377;BME280;35253;34.688;33.040;2023-11-19T00:20:20;99864.53;;;20.49;100.00
49377;BME280;35253;34.688;33.040;2023-11-19T00:22:47;99857.41;;;20.56;100.00
49377;BME280;35253;34.688;33.040;2023-11-19T00:25:20;99840.50;;;20.46;100.00
49377;BME280;35253;34.688;33.040;2023-11-19T00:27:47;99832.41;;;20.38;100.00
49377;BME280;35253;34.688;33.040;2023-11-19T00:30:13;99835.44;;;20.43;100.00
49377;BME280;35253;34.688;33.040;2023-11-19T00:32:40;99842.19;;;20.47;100.00
49377;BME280;35253;34.688;33.040;2023-11-19T00:35:06;99847.94;;;20.27;100.00
49377;BME280;35253;34.688;33.040;2023-11-19T00:37:36;99834.94;;;20.23;100.00
49377;BME280;35253;34.688;33.040;2023-11-19T00:40:01;99840.84;;;20.43;100.00
49377;BME280;35253;34.688;33.040;2023-11-19T00:42:30;99842.53;;;20.27;100.00
49377;BME280;35253;34.688;33.040;2023-11-19T00:44:56;99850.00;;;20.25;100.00
49377;BME280;35253;34.688;33.040;2023-11-19T00:47:23;99847.00;;;20.67;100.00
49377;BME280;35253;34.688;33.040;2023-11-19T00:49:48;99850.47;;;20.53;100.00
49377;BME280;35253;34.688;33.040;2023-11-19T00:52:16;99861.84;;;20.24;100.00
49377;BME280;35253;34.688;33.040;2023-11-19T00:54:41;99872.00;;;20.22;100.00
49377;BME280;35253;34.688;33.040;2023-11-19T00:57:07;99861.50;;;20.19;100.00
49377;BME280;35253;34.688;33.040;2023-11-19T00:59:33;99871.16;;;20.22;100.00
49377;BME280;35253;34.688;33.040;2023-11-19T01:01:58;99871.66;;;20.25;100.00
49377;BME280;35253;34.688;33.040;2023-11-19T01:04:29;99878.78;;;20.27;100.00
49377;BME280;35253;34.688;33.040;2023-11-19T01:06:54;99883.34;;;20.18;100.00
49377;BME280;35253;34.688;33.040;2023-11-19T01:09:20;99874.69;;;20.14;100.00
49377;BME280;35253;34.688;33.040;2023-11-19T01:11:46;99884.19;;;20.02;100.00
49377;BME280;35253;34.688;33.040;2023-11-19T01:14:11;99890.31;;;19.96;100.00
49377;BME280;35253;34.688;33.040;2023-11-19T01:16:37;99871.69;;;19.93;100.00
49377;BME280;35253;34.688;33.040;2023-11-19T01:19:02;99883.22;;;19.87;100.00
49377;BME280;35253;34.688;33.040;2023-11-19T01:21:30;99880.84;;;20.00;100.00
49377;BME280;35253;34.688;33.040;2023-11-19T01:23:57;99871.19;;;19.82;100.00
49377;BME280;35253;34.688;33.040;2023-11-19T01:26:24;99869.00;;;19.85;100.00
49377;BME280;35253;34.688;33.040;2023-11-19T01:28:49;99866.78;;;19.56;100.00
49377;BME280;35253;34.688;33.040;2023-11-19T01:31:18;99858.50;;;19.50;100.00
49377;BME280;35253;34.688;33.040;2023-11-19T01:33:43;99857.84;;;19.56;100.00
49377;BME280;35253;34.688;33.040;2023-11-19T01:36:09;99854.28;;;19.71;100.00
49377;BME280;35253;34.688;33.040;2023-11-19T01:38:38;99839.59;;;19.82;100.00
49377;BME280;35253;34.688;33.040;2023-11-19T01:41:03;99837.06;;;19.56;100.00
49377;BME280;35253;34.688;33.040;2023-11-19T01:43:37;99833.50;;;19.48;100.00
49377;BME280;35253;34.688;33.040;2023-11-19T01:46:05;99827.06;;;19.49;100.00
49377;BME280;35253;34.688;33.040;2023-11-19T01:48:34;99837.56;;;19.52;100.00
49377;BME280;35253;34.688;33.040;2023-11-19T01:51:07;99845.66;;;19.44;100.00
49377;BME280;35253;34.688;33.040;2023-11-19T01:53:34;99844.31;;;19.48;100.00
49377;BME280;35253;34.688;33.040;2023-11-19T01:56:02;99845.66;;;19.68;100.00
49377;BME280;35253;34.688;33.040;2023-11-19T01:58:28;99834.00;;;19.51;100.00
49377;BME280;35253;34.688;33.040;2023-11-19T02:00:56;99833.16;;;19.51;100.00
49377;BME280;35253;34.688;33.040;2023-11-19T02:03:22;99841.78;;;19.62;100.00
49377;BME280;35253;34.688;33.040;2023-11-19T02:05:51;99838.91;;;19.56;100.00
49377;BME280;35253;34.688;33.040;2023-11-19T02:08:18;99845.31;;;19.55;100.00
49377;BME280;35253;34.688;33.040;2023-11-19T02:10:44;99841.78;;;19.54;100.00
49377;BME280;35253;34.688;33.040;2023-11-19T02:13:10;99838.41;;;19.52;100.00
49377;BME280;35253;34.688;33.040;2023-11-19T02:15:36;99834.69;;;19.61;100.00
49377;BME280;35253;34.688;33.040;2023-11-19T02:18:21;99841.25;;;19.59;100.00
49377;BME280;35253;34.688;33.040;2023-11-19T02:20:50;99838.56;;;19.59;100.00
49377;BME280;35253;34.688;33.040;2023-11-19T02:23:16;99828.75;;;19.58;100.00
49377;BME280;35253;34.688;33.040;2023-11-19T02:25:43;99830.44;;;19.59;100.00
49377;BME280;35253;34.688;33.040;2023-11-19T02:28:10;99830.94;;;19.62;100.00
49377;BME280;35253;34.688;33.040;2023-11-19T02:30:37;99829.75;;;19.49;100.00
49377;BME280;35253;34.688;33.040;2023-11-19T02:33:03;99827.06;;;19.49;100.00
49377;BME280;35253;34.688;33.040;2023-11-19T02:35:31;99811.19;;;19.46;100.00
49377;BME280;35253;34.688;33.040;2023-11-19T02:37:58;99810.69;;;19.58;100.00
49377;BME280;35253;34.688;33.040;2023-11-19T02:40:28;99807.59;;;19.29;100.00
49377;BME280;35253;34.688;33.040;2023-11-19T02:42:54;99807.59;;;19.29;100.00
49377;BME280;35253;34.688;33.040;2023-11-19T02:45:22;99805.06;;;19.27;100.00
49377;BME280;35253;34.688;33.040;2023-11-19T02:47:48;99808.09;;;19.41;100.00
49377;BME280;35253;34.688;33.040;2023-11-19T02:50:14;99807.81;;;19.52;100.00
49377;BME280;35253;34.688;33.040;2023-11-19T02:52:41;99814.91;;;19.61;100.00
49377;BME280;35253;34.688;33.040;2023-11-19T02:55:07;99820.25;;;19.36;100.00
49377;BME280;35253;34.688;33.040;2023-11-19T02:57:44;99824.03;;;19.52;100.00
49377;BME280;35253;34.688;33.040;2023-11-19T03:00:18;99817.91;;;19.33;100.00
49377;BME280;35253;34.688;33.040;2023-11-19T03:02:44;99819.28;;;19.62;100.00
49377;BME280;35253;34.688;33.040;2023-11-19T03:05:19;99820.31;;;19.45;100.00
49377;BME280;35253;34.688;33.040;2023-11-19T03:07:45;99839.84;;;19.22;100.00
49377;BME280;35253;34.688;33.040;2023-11-19T03:10:11;99836.63;;;19.27;100.00
49377;BME280;35253;34.688;33.040;2023-11-19T03:12:43;99841.53;;;19.23;100.00
49377;BME280;35253;34.688;33.040;2023-11-19T03:15:11;99849.50;;;19.25;100.00
49377;BME280;35253;34.688;33.040;2023-11-19T03:17:44;99855.06;;;19.31;100.00
49377;BME280;35253;34.688;33.040;2023-11-19T03:20:11;99852.81;;;19.11;100.00
49377;BME280;35253;34.688;33.040;2023-11-19T03:22:43;99857.22;;;19.04;100.00
49377;BME280;35253;34.688;33.040;2023-11-19T03:25:09;99851.59;;;18.97;100.00
49377;BME280;35253;34.688;33.040;2023-11-19T03:27:36;99847.69;;;18.91;100.00
49377;BME280;35253;34.688;33.040;2023-11-19T03:30:02;99850.56;;;18.82;100.00
49377;BME280;35253;34.688;33.040;2023-11-19T03:32:31;99852.91;;;18.85;100.00
49377;BME280;35253;34.688;33.040;2023-11-19T03:34:57;99848.06;;;19.05;100.00
49377;BME280;35253;34.688;33.040;2023-11-19T03:37:23;99847.91;;;18.98;100.00
49377;BME280;35253;34.688;33.040;2023-11-19T03:39:49;99851.94;;;18.94;100.00
49377;BME280;35253;34.688;33.040;2023-11-19T03:42:15;99844.56;;;19.04;100.00
49377;BME280;35253;34.688;33.040;2023-11-19T03:44:40;99847.25;;;19.04;100.00
49377;BME280;35253;34.688;33.040;2023-11-19T03:47:06;99851.63;;;19.05;100.00
49377;BME280;35253;34.688;33.040;2023-11-19T03:49:32;99857.09;;;19.21;100.00
49377;BME280;35253;34.688;33.040;2023-11-19T03:51:57;99857.53;;;19.09;100.00
49377;BME280;35253;34.688;33.040;2023-11-19T03:54:23;99853.31;;;18.98;100.00
49377;BME280;35253;34.688;33.040;2023-11-19T03:56:49;99846.06;;;19.07;100.00
49377;BME280;35253;34.688;33.040;2023-11-19T03:59:14;99846.91;;;19.07;100.00
49377;BME280;35253;34.688;33.040;2023-11-19T04:01:41;99842.84;;;18.95;100.00
49377;BME280;35253;34.688;33.040;2023-11-19T04:04:06;99856.28;;;18.87;100.00
49377;BME280;35253;34.688;33.040;2023-11-19T04:06:32;99842.97;;;18.85;100.00
49377;BME280;35253;34.688;33.040;2023-11-19T04:08:58;99847.56;;;19.01;100.00
49377;BME280;35253;34.688;33.040;2023-11-19T04:11:23;99837.09;;;19.06;100.00
49377;BME280;35253;34.688;33.040;2023-11-19T04:13:49;99852.59;;;18.88;100.00
49377;BME280;35253;34.688;33.040;2023-11-19T04:16:14;99846.50;;;18.78;100.00
49377;BME280;35253;34.688;33.040;2023-11-19T04:18:40;99838.72;;;18.83;100.00
49377;BME280;35253;34.688;33.040;2023-11-19T04:21:07;99851.56;;;18.81;100.00
49377;BME280;35253;34.688;33.040;2023-11-19T04:23:33;99857.28;;;18.78;100.00
49377;BME280;35253;34.688;33.040;2023-11-19T04:26:02;99852.13;;;19.01;100.00
49377;BME280;35253;34.688;33.040;2023-11-19T04:28:28;99862.34;;;18.81;100.00
49377;BME280;35253;34.688;33.040;2023-11-19T04:30:53;99857.47;;;18.84;100.00
49377;BME280;35253;34.688;33.040;2023-11-19T04:33:19;99859.31;;;18.76;100.00
49377;BME280;35253;34.688;33.040;2023-11-19T04:35:45;99859.69;;;18.89;100.00
49377;BME280;35253;34.688;33.040;2023-11-19T04:38:11;99858.38;;;19.09;100.00
49377;BME280;35253;34.688;33.040;2023-11-19T04:40:36;99859.84;;;18.87;100.00
49377;BME280;35253;34.688;33.040;2023-11-19T04:43:02;99849.56;;;18.91;100.00
49377;BME280;35253;34.688;33.040;2023-11-19T04:45:27;99851.25;;;19.00;100.00
49377;BME280;35253;34.688;33.040;2023-11-19T04:47:53;99843.50;;;18.97;100.00
49377;BME280;35253;34.688;33.040;2023-11-19T04:50:19;99847.97;;;18.72;100.00
49377;BME280;35253;34.688;33.040;2023-11-19T04:52:44;99852.91;;;18.85;100.00
49377;BME280;35253;34.688;33.040;2023-11-19T04:55:11;99851.19;;;18.76;100.00
49377;BME280;35253;34.688;33.040;2023-11-19T04:57:37;99843.47;;;18.89;100.00
49377;BME280;35253;34.688;33.040;2023-11-19T05:00:04;99843.47;;;18.89;100.00
49377;BME280;35253;34.688;33.040;2023-11-19T05:02:30;99847.78;;;18.74;100.00
49377;BME280;35253;34.688;33.040;2023-11-19T05:04:56;99853.13;;;18.58;100.00
49377;BME280;35253;34.688;33.040;2023-11-19T05:07:22;99849.41;;;18.92;100.00
49377;BME280;35253;34.688;33.040;2023-11-19T05:09:48;99851.94;;;18.94;100.00
49377;BME280;35253;34.688;33.040;2023-11-19T05:12:14;99864.09;;;18.90;100.00
49377;BME280;35253;34.688;33.040;2023-11-19T05:14:40;99867.69;;;19.07;100.00
49377;BME280;35253;34.688;33.040;2023-11-19T05:17:05;99872.22;;;19.06;100.00
49377;BME280;35253;34.688;33.040;2023-11-19T05:19:33;99876.13;;;19.12;100.00
49377;BME280;35253;34.688;33.040;2023-11-19T05:21:58;99878.09;;;18.94;100.00
49377;BME280;35253;34.688;33.040;2023-11-19T05:24:24;99877.56;;;18.82;100.00
49377;BME280;35253;34.688;33.040;2023-11-19T05:26:49;99865.78;;;18.91;100.00
49377;BME280;35253;34.688;33.040;2023-11-19T05:29:16;99868.16;;;18.94;100.00
49377;BME280;35253;34.688;33.040;2023-11-19T05:31:42;99868.63;;;18.81;100.00
49377;BME280;35253;34.688;33.040;2023-11-19T05:34:07;99877.03;;;18.78;100.00
49377;BME280;35253;34.688;33.040;2023-11-19T05:36:33;99873.81;;;18.75;100.00
49377;BME280;35253;34.688;33.040;2023-11-19T05:38:58;99877.25;;;18.93;100.00
49377;BME280;35253;34.688;33.040;2023-11-19T05:41:24;99873.22;;;18.97;100.00
49377;BME280;35253;34.688;33.040;2023-11-19T05:43:50;99865.97;;;19.06;100.00
49377;BME280;35253;34.688;33.040;2023-11-19T05:46:15;99866.66;;;19.08;100.00
49377;BME280;35253;34.688;33.040;2023-11-19T05:48:41;99864.78;;;19.00;100.00
49377;BME280;35253;34.688;33.040;2023-11-19T05:51:08;99849.78;;;19.22;100.00
49377;BME280;35253;34.688;33.040;2023-11-19T05:53:33;99837.47;;;19.27;100.00
49377;BME280;35253;34.688;33.040;2023-11-19T05:55:59;99819.28;;;19.46;100.00
49377;BME280;35253;34.688;33.040;2023-11-19T05:58:29;99819.78;;;19.49;100.00
49377;BME280;35253;34.688;33.040;2023-11-19T06:00:58;99837.56;;;19.60;100.00
49377;BME280;35253;34.688;33.040;2023-11-19T06:03:26;99846.63;;;19.34;100.00
49377;BME280;35253;34.688;33.040;2023-11-19T06:05:52;99847.63;;;19.25;100.00
49377;BME280;35253;34.688;33.040;2023-11-19T06:08:17;99861.16;;;19.42;100.00
49377;BME280;35253;34.688;33.040;2023-11-19T06:10:45;99864.25;;;19.47;100.00
49377;BME280;35253;34.688;33.040;2023-11-19T06:13:16;99878.81;;;19.70;100.00
49377;BME280;35253;34.688;33.040;2023-11-19T06:15:44;99884.22;;;19.78;100.00
49377;BME280;35253;34.688;33.040;2023-11-19T06:18:10;99883.88;;;19.81;100.00
49377;BME280;35253;34.688;33.040;2023-11-19T06:20:37;99886.56;;;19.73;100.00
49377;BME280;35253;34.688;33.040;2023-11-19T06:23:03;99889.28;;;19.81;100.00
49377;BME280;35253;34.688;33.040;2023-11-19T06:25:29;99890.97;;;19.90;100.00
49377;BME280;35253;34.688;33.040;2023-11-19T06:27:54;99886.22;;;19.60;100.00
49377;BME280;35253;34.688;33.040;2023-11-19T06:30:20;99886.38;;;19.66;100.00
49377;BME280;35253;34.688;33.040;2023-11-19T06:32:46;99893.84;;;19.64;100.00
49377;BME280;35253;34.688;33.040;2023-11-19T06:35:12;99898.41;;;19.72;100.00
49377;BME280;35253;34.688;33.040;2023-11-19T06:37:40;99897.38;;;19.57;100.00
49377;BME280;35253;34.688;33.040;2023-11-19T06:40:06;99904.16;;;19.69;100.00
49377;BME280;35253;34.688;33.040;2023-11-19T06:42:34;99892.34;;;19.70;100.00
49377;BME280;35253;34.688;33.040;2023-11-19T06:45:00;99891.28;;;19.55;100.00
49377;BME280;35253;34.688;33.040;2023-11-19T06:47:27;99908.56;;;19.70;100.00
49377;BME280;35253;34.688;33.040;2023-11-19T06:49:54;99896.56;;;20.05;100.00
49377;BME280;35253;34.688;33.040;2023-11-19T06:52:20;99891.63;;;19.92;100.00
49377;BME280;35253;34.688;33.040;2023-11-19T06:54:46;99898.72;;;20.01;100.00
49377;BME280;35253;34.688;33.040;2023-11-19T06:57:12;99892.50;;;20.09;100.00
49377;BME280;35253;34.688;33.040;2023-11-19T06:59:38;99896.72;;;20.11;100.00
49377;BME280;35253;34.688;33.040;2023-11-19T07:02:04;99906.16;;;20.23;100.00
49377;BME280;35253;34.688;33.040;2023-11-19T07:04:31;99905.84;;;20.43;100.00
49377;BME280;35253;34.688;33.040;2023-11-19T07:06:57;99893.97;;;20.27;100.00
49377;BME280;35253;34.688;33.040;2023-11-19T07:09:22;99889.22;;;20.46;100.00
49377;BME280;35253;34.688;33.040;2023-11-19T07:11:48;99893.66;;;20.39;100.00
49377;BME280;35253;34.688;33.040;2023-11-19T07:14:17;99886.56;;;20.21;100.00
49377;BME280;35253;34.688;33.040;2023-11-19T07:16:43;99883.47;;;20.41;100.00
49377;BME280;35253;34.688;33.040;2023-11-19T07:19:09;99877.63;;;20.76;100.00
49377;BME280;35253;34.688;33.040;2023-11-19T07:21:34;99884.66;;;20.46;100.00
49377;BME280;35253;34.688;33.040;2023-11-19T07:24:03;99893.25;;;20.58;100.00
49377;BME280;35253;34.688;33.040;2023-11-19T07:26:28;99884.84;;;20.53;100.00
49377;BME280;35253;34.688;33.040;2023-11-19T07:28:54;99890.75;;;20.56;100.00
49377;BME280;35253;34.688;33.040;2023-11-19T07:31:20;99901.28;;;20.35;100.00
49377;BME280;35253;34.688;33.040;2023-11-19T07:33:47;99892.44;;;20.57;100.00
49377;BME280;35253;34.688;33.040;2023-11-19T07:36:13;99884.50;;;20.48;100.00
49377;BME280;35253;34.688;33.040;2023-11-19T07:38:39;99890.38;;;20.59;100.00
49377;BME280;35253;34.688;33.040;2023-11-19T07:41:05;99899.13;;;20.78;100.00
49377;BME280;35253;34.688;33.040;2023-11-19T07:43:32;99898.94;;;20.87;100.00
49377;BME280;35253;34.688;33.040;2023-11-19T07:45:58;99913.97;;;20.90;100.00
49377;BME280;35253;34.688;33.040;2023-11-19T07:48:25;99898.97;;;20.79;100.00
49377;BME280;35253;34.688;33.040;2023-11-19T07:50:52;99910.16;;;20.68;100.00
49377;BME280;35253;34.688;33.040;2023-11-19T07:53:17;99904.44;;;20.55;100.00
49377;BME280;35253;34.688;33.040;2023-11-19T07:55:43;99910.88;;;20.62;100.00
49377;BME280;35253;34.688;33.040;2023-11-19T07:58:10;99906.94;;;20.73;100.00
49377;BME280;35253;34.688;33.040;2023-11-19T08:00:36;99899.00;;;20.71;100.00
49377;BME280;35253;34.688;33.040;2023-11-19T08:03:03;99902.72;;;20.70;100.00
49377;BME280;35253;34.688;33.040;2023-11-19T08:05:30;99909.97;;;20.78;100.00
49377;BME280;35253;34.688;33.040;2023-11-19T08:07:56;99900.22;;;20.52;100.00
49377;BME280;35253;34.688;33.040;2023-11-19T08:10:22;99908.06;;;20.86;100.00
49377;BME280;35253;34.688;33.040;2023-11-19T08:12:48;99915.25;;;20.71;100.00
49377;BME280;35253;34.688;33.040;2023-11-19T08:15:14;99908.13;;;21.17;100.00
49377;BME280;35253;34.688;33.040;2023-11-19T08:17:41;99912.00;;;21.23;100.00
49377;BME280;35253;34.688;33.040;2023-11-19T08:20:09;99911.25;;;21.37;100.00
49377;BME280;35253;34.688;33.040;2023-11-19T08:22:38;99899.94;;;21.56;100.00
49377;BME280;35253;34.688;33.040;2023-11-19T08:25:05;99900.97;;;21.24;100.00
49377;BME280;35253;34.688;33.040;2023-11-19T08:27:31;99911.84;;;21.47;100.00
49377;BME280;35253;34.688;33.040;2023-11-19T08:29:57;99895.00;;;21.37;100.00
49377;BME280;35253;34.688;33.040;2023-11-19T08:32:26;99906.09;;;21.11;100.00
49377;BME280;35253;34.688;33.040;2023-11-19T08:34:52;99902.28;;;21.36;100.00
49377;BME280;35253;34.688;33.040;2023-11-19T08:37:18;99899.69;;;21.66;100.00
49377;BME280;35253;34.688;33.040;2023-11-19T08:39:46;99902.38;;;21.43;100.00
49377;BME280;35253;34.688;33.040;2023-11-19T08:42:12;99882.75;;;21.41;100.00
49377;BME280;35253;34.688;33.040;2023-11-19T08:44:38;99891.72;;;21.41;100.00
49377;BME280;35253;34.688;33.040;2023-11-19T08:47:04;99885.75;;;21.46;100.00
49377;BME280;35253;34.688;33.040;2023-11-19T08:49:31;99888.72;;;21.59;100.00
49377;BME280;35253;34.688;33.040;2023-11-19T08:51:57;99887.31;;;21.86;100.00
49377;BME280;35253;34.688;33.040;2023-11-19T08:54:22;99894.13;;;21.59;100.00
49377;BME280;35253;34.688;33.040;2023-11-19T08:56:48;99890.25;;;22.22;100.00
49377;BME280;35253;34.688;33.040;2023-11-19T08:59:14;99879.34;;;21.92;100.00
49377;BME280;35253;34.688;33.040;2023-11-19T09:01:40;99879.09;;;21.79;100.00
49377;BME280;35253;34.688;33.040;2023-11-19T09:04:06;99871.19;;;21.92;100.00
49377;BME280;35253;34.688;33.040;2023-11-19T09:06:32;99876.97;;;21.89;100.00
49377;BME280;35253;34.688;33.040;2023-11-19T09:08:58;99866.66;;;21.85;100.00
49377;BME280;35253;34.688;33.040;2023-11-19T09:11:27;99866.91;;;21.75;100.00
49377;BME280;35253;34.688;33.040;2023-11-19T09:13:53;99856.78;;;21.69;99.60
49377;BME280;35253;34.688;33.040;2023-11-19T09:16:18;99854.25;;;21.45;98.89
49377;BME280;35253;34.688;33.040;2023-11-19T09:18:44;99865.09;;;21.68;98.31
49377;BME280;35253;34.688;33.040;2023-11-19T09:21:13;99850.03;;;21.65;96.66
49377;BME280;35253;34.688;33.040;2023-11-19T09:23:39;99848.47;;;21.71;97.57
49377;BME280;35253;34.688;33.040;2023-11-19T09:26:05;99862.34;;;21.53;95.51
49377;BME280;35253;34.688;33.040;2023-11-19T09:28:32;99857.63;;;21.70;97.21
49377;BME280;35253;34.688;33.040;2023-11-19T09:30:57;99869.78;;;21.51;100.00
49377;BME280;35253;34.688;33.040;2023-11-19T09:33:24;99872.69;;;21.49;100.00
49377;BME280;35253;34.688;33.040;2023-11-19T09:35:50;99862.31;;;21.30;100.00
49377;BME280;35253;34.688;33.040;2023-11-19T09:38:16;99874.38;;;21.50;100.00
49377;BME280;35253;34.688;33.040;2023-11-19T09:40:42;99871.13;;;21.55;96.79
49377;BME280;35253;34.688;33.040;2023-11-19T09:43:08;99876.13;;;21.66;96.36
49377;BME280;35253;34.688;33.040;2023-11-19T09:45:47;99880.84;;;21.19;100.00
49377;BME280;35253;34.688;33.040;2023-11-19T09:48:17;99876.41;;;21.26;99.98
49377;BME280;35253;34.688;33.040;2023-11-19T09:50:48;99867.34;;;21.02;100.00
49377;BME280;35253;34.688;33.040;2023-11-19T09:53:14;99881.94;;;21.01;100.00
49377;BME280;35253;34.688;33.040;2023-11-19T09:55:41;99868.06;;;20.96;100.00
49377;BME280;35253;34.688;33.040;2023-11-19T09:58:07;99850.19;;;21.18;100.00
49377;BME280;35253;34.688;33.040;2023-11-19T10:00:33;99868.16;;;21.19;100.00
49377;BME280;35253;34.688;33.040;2023-11-19T10:03:00;99838.84;;;20.76;100.00
49377;BME280;35253;34.688;33.040;2023-11-19T10:05:26;99841.63;;;20.98;100.00
49377;BME280;35253;34.688;33.040;2023-11-19T10:07:52;99838.09;;;20.90;100.00
49377;BME280;35253;34.688;33.040;2023-11-19T10:10:18;99869.00;;;21.11;100.00
49377;BME280;35253;34.688;33.040;2023-11-19T10:12:48;99846.16;;;21.14;100.00
49377;BME280;35253;34.688;33.040;2023-11-19T10:15:25;99844.28;;;21.15;100.00
49377;BME280;35253;34.688;33.040;2023-11-19T10:17:55;99831.88;;;21.12;100.00
49377;BME280;35253;34.688;33.040;2023-11-19T10:20:20;99847.28;;;21.20;100.00
49377;BME280;35253;34.688;33.040;2023-11-19T10:22:46;99826.91;;;21.32;100.00
49377;BME280;35253;34.688;33.040;2023-11-19T10:25:23;99850.38;;;21.17;100.00
49377;BME280;35253;34.688;33.040;2023-11-19T10:27:50;99828.19;;;21.13;100.00
49377;BME280;35253;34.688;33.040;2023-11-19T10:30:23;99830.06;;;21.04;100.00
49377;BME280;35253;34.688;33.040;2023-11-19T10:33:09;99838.38;;;21.03;100.00
49377;BME280;35253;34.688;33.040;2023-11-19T10:35:50;99828.84;;;20.84;100.00
49377;BME280;35253;34.688;33.040;2023-11-19T10:38:19;99819.81;;;20.92;100.00
49377;BME280;35253;34.688;33.040;2023-11-19T10:40:46;99824.97;;;21.09;100.00
49377;BME280;35253;34.688;33.040;2023-11-19T10:43:12;99814.84;;;21.03;100.00
49377;BME280;35253;34.688;33.040;2023-11-19T10:45:39;99809.41;;;21.03;100.00
49377;BME280;35253;34.688;33.040;2023-11-19T10:48:05;99814.31;;;20.77;100.00
49377;BME280;35253;34.688;33.040;2023-11-19T10:50:34;99800.72;;;20.85;100.00
49377;BME280;35253;34.688;33.040;2023-11-19T10:53:02;99797.72;;;20.72;100.00
49377;BME280;35253;34.688;33.040;2023-11-19T10:55:33;99794.81;;;20.82;100.00
49377;BME280;35253;34.688;33.040;2023-11-19T10:58:04;99796.06;;;20.71;100.00
49377;BME280;35253;34.688;33.040;2023-11-19T11:00:44;99776.81;;;20.89;100.00
49377;BME280;35253;34.688;33.040;2023-11-19T11:03:18;99788.41;;;21.05;100.00
49377;BME280;35253;34.688;33.040;2023-11-19T11:05:49;99777.66;;;20.89;100.00
49377;BME280;35253;34.688;33.040;2023-11-19T11:08:15;99796.72;;;21.04;100.00
49377;BME280;35253;34.688;33.040;2023-11-19T11:10:55;99789.97;;;20.69;100.00
49377;BME280;35253;34.688;33.040;2023-11-19T11:13:23;99788.53;;;20.81;100.00
49377;BME280;35253;34.688;33.040;2023-11-19T11:15:50;99808.13;;;20.91;100.00
49377;BME280;35253;34.688;33.040;2023-11-19T11:18:17;99799.44;;;20.73;100.00
49377;BME280;35253;34.688;33.040;2023-11-19T11:20:47;99799.31;;;20.89;100.00
49377;BME280;35253;34.688;33.040;2023-11-19T11:23:45;99810.47;;;20.63;100.00
49377;BME280;35253;34.688;33.040;2023-11-19T11:32:18;99796.84;;;21.10;100.00
49377;BME280;35253;34.688;33.040;2023-11-19T11:34:54;99793.69;;;20.68;100.00
49377;BME280;35253;34.688;33.040;2023-11-19T11:37:34;99782.00;;;20.67;100.00
49377;BME280;35253;34.688;33.040;2023-11-19T11:40:02;99770.91;;;20.85;100.00
49377;BME280;35253;34.688;33.040;2023-11-19T11:42:38;99763.03;;;20.67;100.00
49377;BME280;35253;34.688;33.040;2023-11-19T11:45:11;99781.78;;;20.46;100.00
49377;BME280;35253;34.688;33.040;2023-11-19T11:50:17;99795.63;;;20.51;100.00
49377;BME280;35253;34.688;33.040;2023-11-19T11:55:25;99789.75;;;20.40;100.00
49377;BME280;35253;34.688;33.040;2023-11-19T11:57:50;99792.53;;;20.62;100.00
49377;BME280;35253;34.688;33.040;2023-11-19T12:02:52;99793.53;;;20.31;100.00
49377;BME280;35253;34.688;33.040;2023-11-19T12:05:17;99799.78;;;20.31;100.00
49377;BME280;35253;34.688;33.040;2023-11-19T12:07:57;99789.78;;;20.15;100.00
49377;BME280;35253;34.688;33.040;2023-11-19T12:10:25;99790.84;;;20.06;100.00
49377;BME280;35253;34.688;33.040;2023-11-19T12:12:58;99802.97;;;20.18;100.00
49377;BME280;35253;34.688;33.040;2023-11-19T12:15:24;99804.16;;;20.24;100.00
49377;BME280;35253;34.688;33.040;2023-11-19T12:17:52;99770.25;;;19.89;100.00
49377;BME280;35253;34.688;33.040;2023-11-19T12:20:19;99767.03;;;19.86;100.00
49377;BME280;35253;34.688;33.040;2023-11-19T12:22:46;99772.28;;;19.87;100.00
49377;BME280;35253;34.688;33.040;2023-11-19T12:25:15;99770.41;;;19.79;100.00
49377;BME280;35253;34.688;33.040;2023-11-19T12:27:44;99777.72;;;19.63;100.00
49377;BME280;35253;34.688;33.040;2023-11-19T12:30:10;99789.22;;;19.49;100.00
49377;BME280;35253;34.688;33.040;2023-11-19T12:32:43;99779.59;;;19.54;100.00
49377;BME280;35253;34.688;33.040;2023-11-19T12:35:09;99778.72;;;19.38;100.00
49377;BME280;35253;34.688;33.040;2023-11-19T12:37:51;99790.56;;;19.45;100.00
49377;BME280;35253;34.688;33.040;2023-11-19T12:42:48;99792.59;;;19.59;100.00
49377;BME280;35253;34.688;33.040;2023-11-19T12:45:14;99778.19;;;19.91;100.00
49377;BME280;35253;34.688;33.040;2023-11-19T12:47:41;99767.88;;;19.94;100.00
49377;BME280;35253;34.688;33.040;2023-11-19T12:50:08;99763.44;;;20.09;100.00
49377;BME280;35253;34.688;33.040;2023-11-19T12:52:37;99761.94;;;19.99;100.00
49377;BME280;35253;34.688;33.040;2023-11-19T12:57:48;99769.72;;;19.94;100.00
49377;BME280;35253;34.688;33.040;2023-11-19T13:00:23;99770.13;;;19.58;100.00